Flight Track Log - Related Links

Times and Time Zones

All times are in EDT time to prevent confusion due to time zone crossing. See the EJA809 flight status page for this flight to view local times or setup timezone preferences in your user account.

Time Position Orientation Groundspeed Altitude Reporting Facility
EDT Latitude Longitude Course Direction KTS MPH feet Rate Location/Type
Mon 11:48:16 AM 43.6500 -79.6500 216° Southwest 180 207 2,900  Level Toronto Center
Mon 11:49:16 AM 43.6000 -79.7000 216° Southwest 240 276 5,300 1,850 Climbing Toronto Center
Mon 11:50:16 AM 43.5500 -79.6333 136° Southeast 280 322 6,600 850 Climbing Toronto Center
Mon 11:51:16 AM 43.5000 -79.5167 121° Southeast 300 345 7,000 450 Climbing Toronto Center
Mon 11:52:16 AM 43.5000 -79.4333 90° East 310 357 7,500 2,200 Climbing Toronto Center
Mon 11:53:16 AM 43.5333 -79.3167 68° East 320 368 11,400 4,000 Climbing Toronto Center
Mon 11:54:16 AM 43.5667 -79.1667 73° East 310 357 15,500 3,700 Climbing Toronto Center
Mon 11:55:16 AM 43.6000 -79.0833 61° Northeast 300 345 18,800 3,100 Climbing Toronto Center
Mon 11:56:16 AM 43.6167 -78.9667 79° East 310 357 21,700 3,000 Climbing Toronto Center
Mon 11:57:16 AM 43.6500 -78.8333 71° East 320 368 24,800 2,370 Climbing Toronto Center
Mon 11:58:15 AM 43.6833 -78.7167 68° East 330 380 26,400 1,100 Climbing Toronto Center
Mon 11:59:16 AM 43.7000 -78.5667 81° East 380 437 27,000 298 Climbing Toronto Center
Mon 12:00:16 PM 43.7000 -78.3833 90° East 440 506 27,000  Level Toronto Center
Mon 12:01:16 PM 43.7167 -78.2333 81° East 470 541 27,000  Level Toronto Center
Mon 12:02:16 PM 43.7500 -78.0333 77° East 470 541 27,000  Level Toronto Center
Mon 12:03:16 PM 43.7667 -77.8833 81° East 440 506 27,000  Level Toronto Center
Mon 12:04:16 PM 43.7833 -77.7167 82° East 410 472 27,000  Level Toronto Center
Mon 12:05:16 PM 43.8000 -77.5833 80° East 400 460 27,000  Level Toronto Center
Mon 12:06:16 PM 43.8167 -77.4167 82° East 400 460 27,000  Level Toronto Center
Mon 12:07:16 PM 43.8167 -77.2833 90° East 400 460 27,000  Level Toronto Center
Mon 12:08:16 PM 43.8333 -77.1167 82° East 400 460 27,000  Level Toronto Center
Mon 12:09:16 PM 43.8500 -76.9667 81° East 400 460 27,000  Level Toronto Center
Mon 12:10:16 PM 43.8667 -76.8167 81° East 390 449 27,000  Level Toronto Center
Mon 12:11:16 PM 43.9000 -76.6667 73° East 390 449 27,000  Level Toronto Center
Mon 12:12:06 PM 43.9094 -76.5819 81° East 390 449 27,000  Level Boston Center
Mon 12:13:07 PM 43.9231 -76.4300 83° East 390 449 27,000  Level Boston Center
Mon 12:14:07 PM 43.9367 -76.2781 83° East 390 449 27,000  Level Boston Center
Mon 12:15:06 PM 43.9500 -76.1289 83° East 390 449 27,000  Level Boston Center
Mon 12:16:07 PM 43.9714 -75.9772 79° East 390 449 27,000  Level Boston Center
Mon 12:17:06 PM 43.9986 -75.8344 75° East 390 449 27,000  Level Boston Center
Mon 12:18:06 PM 44.0281 -75.6858 75° East 390 449 27,000  Level Boston Center
Mon 12:19:07 PM 44.0550 -75.5400 76° East 390 449 27,000  Level Boston Center
Mon 12:20:06 PM 44.0839 -75.3942 75° East 390 449 27,000  Level Boston Center
Mon 12:21:07 PM 44.1083 -75.2478 77° East 390 449 27,000  Level Boston Center
Mon 12:22:06 PM 44.1347 -75.1014 76° East 390 449 27,000 -300 Level Boston Center
Mon 12:23:07 PM 44.1611 -74.9492 76° East 390 449 26,400 -793 Descending Boston Center
Mon 12:24:07 PM 44.1892 -74.7969 76° East 397 457 25,400 -1,250 Descending Boston Center
Mon 12:25:07 PM 44.2194 -74.6358 75° East 412 474 23,900 -1,500 Descending Boston Center
Mon 12:26:07 PM 44.2456 -74.4686 78° East 424 488 22,400 -1,550 Descending Boston Center
Mon 12:27:07 PM 44.2753 -74.3075 75° East 429 494 20,800 -2,017 Descending Boston Center
Mon 12:28:06 PM 44.3028 -74.1575 76° East 417 480 18,400 -2,300 Descending Boston Center
Mon 12:29:07 PM 44.3211 -74.0419 77° East 399 459 16,200 -2,481 Descending Boston Center
Mon 12:30:19 PM 44.3503 -73.8772 76° East 370 426 12,900 -3,023 Descending Boston Center
Mon 12:31:18 PM 44.3483 -73.6972 91° East 356 410 9,600 -2,427 Descending Boston Center
Mon 12:32:30 PM 44.3453 -73.5781 92° East 323 372 7,600 -1,985 Descending Boston Center
Mon 12:33:31 PM 44.3547 -73.4475 84° East 285 328 5,200 -1,800 Descending Boston Center
Mon 12:34:30 PM 44.3639 -73.3461 83° East 266 306 4,000 -600 Descending Boston Center
Mon 12:35:31 PM 44.3875 -73.2622 68° East 241 277 4,000 -227 Level Boston Center
Mon 12:36:42 PM 44.4006 -73.1983 74° East 203 234 3,500 -955 Descending Boston Center
Mon 12:37:43 PM 44.4281 -73.1203 64° Northeast 174 200 1,900 -1,388 Descending Boston Center
Mon 12:38:43 PM 44.4572 -73.1322 344° North 105 121 700 -807 Descending Boston Center
Mon 12:39:42 PM 44.4736 -73.1558 314° West 95 109 300 -150 Descending Boston Center
Mon 12:40:43 PM 44.4717 -73.1558 180° South 50 58 400 50 Climbing Boston Center
Mon 12:41:42 PM 44.4675 -73.1528 152° Southeast 19 22 400  Level Boston Center
Mon 12:42:43 PM 44.4694 -73.1614 288° West 13 15 400 9,223 Level Boston Center
Mon 12:43:43 PM 44.4694 -73.1703 270° West 13 15 19,000 18,600 Climbing Boston Center

Login

Don't have an account? Register now (free) for customized features, flight alerts, and more!